sensor_id;sensor_type;location;lat;lon;timestamp;P1;durP1;ratioP1;P2;durP2;ratioP2
43919;SDS011;29578;51.946;5.874;2022-08-19T00:01:25;0.60;;;0.60;;
43919;SDS011;29578;51.946;5.874;2022-08-19T00:03:54;0.55;;;0.55;;
43919;SDS011;29578;51.946;5.874;2022-08-19T00:06:21;0.57;;;0.57;;
43919;SDS011;29578;51.946;5.874;2022-08-19T00:08:46;0.60;;;0.60;;
43919;SDS011;29578;51.946;5.874;2022-08-19T00:11:13;0.55;;;0.55;;
43919;SDS011;29578;51.946;5.874;2022-08-19T00:13:39;0.60;;;0.60;;
43919;SDS011;29578;51.946;5.874;2022-08-19T00:16:05;0.60;;;0.60;;
43919;SDS011;29578;51.946;5.874;2022-08-19T00:18:32;0.50;;;0.50;;
43919;SDS011;29578;51.946;5.874;2022-08-19T00:20:58;0.68;;;0.68;;
43919;SDS011;29578;51.946;5.874;2022-08-19T00:23:25;0.82;;;0.77;;
43919;SDS011;29578;51.946;5.874;2022-08-19T00:25:51;0.82;;;0.75;;
43919;SDS011;29578;51.946;5.874;2022-08-19T00:28:17;1.83;;;1.00;;
43919;SDS011;29578;51.946;5.874;2022-08-19T00:30:43;1.25;;;0.80;;
43919;SDS011;29578;51.946;5.874;2022-08-19T00:33:09;1.38;;;1.08;;
43919;SDS011;29578;51.946;5.874;2022-08-19T00:35:35;1.15;;;0.90;;
43919;SDS011;29578;51.946;5.874;2022-08-19T00:38:03;1.38;;;0.80;;
43919;SDS011;29578;51.946;5.874;2022-08-19T00:40:31;1.27;;;0.90;;
43919;SDS011;29578;51.946;5.874;2022-08-19T00:42:57;0.95;;;0.90;;
43919;SDS011;29578;51.946;5.874;2022-08-19T00:45:24;0.55;;;0.55;;
43919;SDS011;29578;51.946;5.874;2022-08-19T00:47:51;1.85;;;0.90;;
43919;SDS011;29578;51.946;5.874;2022-08-19T00:50:18;1.17;;;0.77;;
43919;SDS011;29578;51.946;5.874;2022-08-19T00:52:46;1.73;;;0.82;;
43919;SDS011;29578;51.946;5.874;2022-08-19T00:55:16;1.15;;;1.00;;
43919;SDS011;29578;51.946;5.874;2022-08-19T00:57:46;1.00;;;0.88;;
43919;SDS011;29578;51.946;5.874;2022-08-19T01:00:16;1.02;;;0.80;;
43919;SDS011;29578;51.946;5.874;2022-08-19T01:02:44;1.52;;;0.90;;
43919;SDS011;29578;51.946;5.874;2022-08-19T01:05:12;0.68;;;0.68;;
43919;SDS011;29578;51.946;5.874;2022-08-19T01:07:44;0.82;;;0.70;;
43919;SDS011;29578;51.946;5.874;2022-08-19T01:10:12;0.95;;;0.82;;
43919;SDS011;29578;51.946;5.874;2022-08-19T01:12:40;1.10;;;0.70;;
43919;SDS011;29578;51.946;5.874;2022-08-19T01:15:07;0.60;;;0.60;;
43919;SDS011;29578;51.946;5.874;2022-08-19T01:17:35;0.75;;;0.70;;
43919;SDS011;29578;51.946;5.874;2022-08-19T01:20:04;0.60;;;0.60;;
43919;SDS011;29578;51.946;5.874;2022-08-19T01:22:34;0.82;;;0.77;;
43919;SDS011;29578;51.946;5.874;2022-08-19T01:25:09;0.70;;;0.70;;
43919;SDS011;29578;51.946;5.874;2022-08-19T01:27:37;0.90;;;0.68;;
43919;SDS011;29578;51.946;5.874;2022-08-19T01:30:06;0.82;;;0.63;;
43919;SDS011;29578;51.946;5.874;2022-08-19T01:32:32;1.08;;;0.80;;
43919;SDS011;29578;51.946;5.874;2022-08-19T01:34:58;0.70;;;0.70;;
43919;SDS011;29578;51.946;5.874;2022-08-19T01:37:26;0.70;;;0.70;;
43919;SDS011;29578;51.946;5.874;2022-08-19T01:39:53;0.88;;;0.88;;
43919;SDS011;29578;51.946;5.874;2022-08-19T01:42:18;0.73;;;0.73;;
43919;SDS011;29578;51.946;5.874;2022-08-19T01:44:44;0.75;;;0.70;;
43919;SDS011;29578;51.946;5.874;2022-08-19T01:47:10;0.70;;;0.70;;
43919;SDS011;29578;51.946;5.874;2022-08-19T01:49:36;0.93;;;0.73;;
43919;SDS011;29578;51.946;5.874;2022-08-19T01:52:03;0.80;;;0.73;;
43919;SDS011;29578;51.946;5.874;2022-08-19T01:54:30;0.80;;;0.70;;
43919;SDS011;29578;51.946;5.874;2022-08-19T01:56:59;0.65;;;0.65;;
43919;SDS011;29578;51.946;5.874;2022-08-19T01:59:28;1.00;;;0.90;;
43919;SDS011;29578;51.946;5.874;2022-08-19T02:01:55;0.77;;;0.70;;
43919;SDS011;29578;51.946;5.874;2022-08-19T02:04:22;1.13;;;1.00;;
43919;SDS011;29578;51.946;5.874;2022-08-19T02:06:48;0.80;;;0.80;;
43919;SDS011;29578;51.946;5.874;2022-08-19T02:09:14;0.88;;;0.80;;
43919;SDS011;29578;51.946;5.874;2022-08-19T02:11:41;1.02;;;0.90;;
43919;SDS011;29578;51.946;5.874;2022-08-19T02:14:07;0.80;;;0.80;;
43919;SDS011;29578;51.946;5.874;2022-08-19T02:16:34;0.70;;;0.70;;
43919;SDS011;29578;51.946;5.874;2022-08-19T02:19:00;0.77;;;0.77;;
43919;SDS011;29578;51.946;5.874;2022-08-19T02:21:26;1.42;;;0.90;;
43919;SDS011;29578;51.946;5.874;2022-08-19T02:23:52;1.25;;;0.90;;
43919;SDS011;29578;51.946;5.874;2022-08-19T02:26:19;0.73;;;0.73;;
43919;SDS011;29578;51.946;5.874;2022-08-19T02:28:44;1.08;;;0.88;;
43919;SDS011;29578;51.946;5.874;2022-08-19T02:31:12;0.88;;;0.80;;
43919;SDS011;29578;51.946;5.874;2022-08-19T02:33:40;2.13;;;1.10;;
43919;SDS011;29578;51.946;5.874;2022-08-19T02:36:06;1.25;;;0.88;;
43919;SDS011;29578;51.946;5.874;2022-08-19T02:38:33;0.98;;;0.90;;
43919;SDS011;29578;51.946;5.874;2022-08-19T02:41:02;0.77;;;0.77;;
43919;SDS011;29578;51.946;5.874;2022-08-19T02:43:32;1.10;;;1.00;;
43919;SDS011;29578;51.946;5.874;2022-08-19T02:46:02;0.70;;;0.70;;
43919;SDS011;29578;51.946;5.874;2022-08-19T02:48:40;0.90;;;0.85;;
43919;SDS011;29578;51.946;5.874;2022-08-19T02:51:06;0.80;;;0.80;;
43919;SDS011;29578;51.946;5.874;2022-08-19T02:53:32;0.80;;;0.80;;
43919;SDS011;29578;51.946;5.874;2022-08-19T02:55:57;1.00;;;0.90;;
43919;SDS011;29578;51.946;5.874;2022-08-19T02:58:24;1.02;;;0.90;;
43919;SDS011;29578;51.946;5.874;2022-08-19T03:00:51;1.27;;;1.00;;
43919;SDS011;29578;51.946;5.874;2022-08-19T03:03:19;1.02;;;0.90;;
43919;SDS011;29578;51.946;5.874;2022-08-19T03:05:45;0.90;;;0.90;;
43919;SDS011;29578;51.946;5.874;2022-08-19T03:08:12;1.30;;;1.00;;
43919;SDS011;29578;51.946;5.874;2022-08-19T03:10:40;0.93;;;0.85;;
43919;SDS011;29578;51.946;5.874;2022-08-19T03:13:08;1.10;;;1.00;;
43919;SDS011;29578;51.946;5.874;2022-08-19T03:15:38;1.08;;;0.98;;
43919;SDS011;29578;51.946;5.874;2022-08-19T03:18:05;1.08;;;0.80;;
43919;SDS011;29578;51.946;5.874;2022-08-19T03:20:30;1.27;;;1.10;;
43919;SDS011;29578;51.946;5.874;2022-08-19T03:22:56;1.00;;;0.90;;
43919;SDS011;29578;51.946;5.874;2022-08-19T03:25:22;1.30;;;0.90;;
43919;SDS011;29578;51.946;5.874;2022-08-19T03:27:48;1.00;;;0.90;;
43919;SDS011;29578;51.946;5.874;2022-08-19T03:30:14;1.08;;;0.98;;
43919;SDS011;29578;51.946;5.874;2022-08-19T03:32:39;1.95;;;1.00;;
43919;SDS011;29578;51.946;5.874;2022-08-19T03:35:05;1.38;;;1.10;;
43919;SDS011;29578;51.946;5.874;2022-08-19T03:37:31;0.88;;;0.88;;
43919;SDS011;29578;51.946;5.874;2022-08-19T03:39:57;1.00;;;0.90;;
43919;SDS011;29578;51.946;5.874;2022-08-19T03:42:23;1.08;;;0.98;;
43919;SDS011;29578;51.946;5.874;2022-08-19T03:44:51;1.45;;;0.90;;
43919;SDS011;29578;51.946;5.874;2022-08-19T03:47:17;0.90;;;0.90;;
43919;SDS011;29578;51.946;5.874;2022-08-19T03:49:43;2.45;;;0.77;;
43919;SDS011;29578;51.946;5.874;2022-08-19T03:52:09;0.90;;;0.90;;
43919;SDS011;29578;51.946;5.874;2022-08-19T03:54:35;1.10;;;0.95;;
43919;SDS011;29578;51.946;5.874;2022-08-19T03:57:03;0.80;;;0.80;;
43919;SDS011;29578;51.946;5.874;2022-08-19T03:59:32;1.00;;;0.90;;
43919;SDS011;29578;51.946;5.874;2022-08-19T04:02:01;2.33;;;1.00;;
43919;SDS011;29578;51.946;5.874;2022-08-19T04:04:32;1.00;;;0.90;;
43919;SDS011;29578;51.946;5.874;2022-08-19T04:06:57;1.25;;;0.90;;
43919;SDS011;29578;51.946;5.874;2022-08-19T04:09:23;1.08;;;0.98;;
43919;SDS011;29578;51.946;5.874;2022-08-19T04:11:51;1.05;;;0.95;;
43919;SDS011;29578;51.946;5.874;2022-08-19T04:14:20;1.48;;;1.25;;
43919;SDS011;29578;51.946;5.874;2022-08-19T04:16:49;0.80;;;0.80;;
43919;SDS011;29578;51.946;5.874;2022-08-19T04:19:16;0.85;;;0.85;;
43919;SDS011;29578;51.946;5.874;2022-08-19T04:21:43;1.20;;;1.10;;
43919;SDS011;29578;51.946;5.874;2022-08-19T04:24:11;1.20;;;1.10;;
43919;SDS011;29578;51.946;5.874;2022-08-19T04:26:37;1.02;;;0.93;;
43919;SDS011;29578;51.946;5.874;2022-08-19T04:29:05;1.50;;;0.90;;
43919;SDS011;29578;51.946;5.874;2022-08-19T04:31:33;1.20;;;1.10;;
43919;SDS011;29578;51.946;5.874;2022-08-19T04:34:01;1.10;;;1.00;;
43919;SDS011;29578;51.946;5.874;2022-08-19T04:36:30;1.20;;;1.10;;
43919;SDS011;29578;51.946;5.874;2022-08-19T04:39:01;1.00;;;0.90;;
43919;SDS011;29578;51.946;5.874;2022-08-19T04:41:30;1.30;;;1.10;;
43919;SDS011;29578;51.946;5.874;2022-08-19T04:44:11;0.70;;;0.70;;
43919;SDS011;29578;51.946;5.874;2022-08-19T04:46:37;0.80;;;0.80;;
43919;SDS011;29578;51.946;5.874;2022-08-19T04:49:04;1.10;;;0.93;;
43919;SDS011;29578;51.946;5.874;2022-08-19T04:51:32;0.80;;;0.80;;
43919;SDS011;29578;51.946;5.874;2022-08-19T04:54:00;1.00;;;0.82;;
43919;SDS011;29578;51.946;5.874;2022-08-19T04:56:27;0.80;;;0.80;;
43919;SDS011;29578;51.946;5.874;2022-08-19T04:58:53;1.27;;;1.00;;
43919;SDS011;29578;51.946;5.874;2022-08-19T05:01:21;0.70;;;0.70;;
43919;SDS011;29578;51.946;5.874;2022-08-19T05:03:50;1.13;;;1.00;;
43919;SDS011;29578;51.946;5.874;2022-08-19T05:06:18;0.73;;;0.73;;
43919;SDS011;29578;51.946;5.874;2022-08-19T05:08:46;1.10;;;1.00;;
43919;SDS011;29578;51.946;5.874;2022-08-19T05:11:14;1.08;;;0.98;;
43919;SDS011;29578;51.946;5.874;2022-08-19T05:13:45;1.42;;;0.90;;
43919;SDS011;29578;51.946;5.874;2022-08-19T05:16:13;0.70;;;0.70;;
43919;SDS011;29578;51.946;5.874;2022-08-19T05:18:40;1.00;;;0.93;;
43919;SDS011;29578;51.946;5.874;2022-08-19T05:21:24;0.80;;;0.80;;
43919;SDS011;29578;51.946;5.874;2022-08-19T05:24:05;0.83;;;0.73;;
43919;SDS011;29578;51.946;5.874;2022-08-19T05:26:34;0.90;;;0.80;;
43919;SDS011;29578;51.946;5.874;2022-08-19T05:29:01;1.02;;;0.93;;
43919;SDS011;29578;51.946;5.874;2022-08-19T05:31:28;1.05;;;0.95;;
43919;SDS011;29578;51.946;5.874;2022-08-19T05:33:54;1.17;;;0.93;;
43919;SDS011;29578;51.946;5.874;2022-08-19T05:36:21;1.52;;;1.10;;
43919;SDS011;29578;51.946;5.874;2022-08-19T05:38:46;1.17;;;1.00;;
43919;SDS011;29578;51.946;5.874;2022-08-19T05:41:13;1.05;;;0.95;;
43919;SDS011;29578;51.946;5.874;2022-08-19T05:43:40;1.17;;;0.90;;
43919;SDS011;29578;51.946;5.874;2022-08-19T05:46:06;1.77;;;1.30;;
43919;SDS011;29578;51.946;5.874;2022-08-19T05:48:33;1.10;;;1.00;;
43919;SDS011;29578;51.946;5.874;2022-08-19T05:51:03;1.17;;;1.08;;
43919;SDS011;29578;51.946;5.874;2022-08-19T05:53:34;0.65;;;0.65;;
43919;SDS011;29578;51.946;5.874;2022-08-19T05:56:04;1.40;;;1.15;;
43919;SDS011;29578;51.946;5.874;2022-08-19T05:58:30;1.52;;;1.30;;
43919;SDS011;29578;51.946;5.874;2022-08-19T06:00:57;1.20;;;1.10;;
43919;SDS011;29578;51.946;5.874;2022-08-19T06:03:29;1.50;;;1.33;;
43919;SDS011;29578;51.946;5.874;2022-08-19T06:05:57;2.10;;;1.58;;
43919;SDS011;29578;51.946;5.874;2022-08-19T06:08:24;1.50;;;1.20;;
43919;SDS011;29578;51.946;5.874;2022-08-19T06:10:51;1.33;;;1.13;;
43919;SDS011;29578;51.946;5.874;2022-08-19T06:13:17;1.27;;;1.10;;
43919;SDS011;29578;51.946;5.874;2022-08-19T06:15:44;1.63;;;1.00;;
43919;SDS011;29578;51.946;5.874;2022-08-19T06:18:11;1.60;;;1.27;;
43919;SDS011;29578;51.946;5.874;2022-08-19T06:20:39;1.10;;;1.00;;
43919;SDS011;29578;51.946;5.874;2022-08-19T06:23:06;1.65;;;1.23;;
43919;SDS011;29578;51.946;5.874;2022-08-19T06:25:32;1.08;;;0.98;;
43919;SDS011;29578;51.946;5.874;2022-08-19T06:27:58;2.10;;;1.60;;
43919;SDS011;29578;51.946;5.874;2022-08-19T06:30:24;1.42;;;1.20;;
43919;SDS011;29578;51.946;5.874;2022-08-19T06:32:50;1.63;;;1.50;;
43919;SDS011;29578;51.946;5.874;2022-08-19T06:35:15;1.48;;;1.25;;
43919;SDS011;29578;51.946;5.874;2022-08-19T06:37:41;1.33;;;1.23;;
43919;SDS011;29578;51.946;5.874;2022-08-19T06:40:08;1.42;;;1.30;;
43919;SDS011;29578;51.946;5.874;2022-08-19T06:42:35;2.42;;;1.73;;
43919;SDS011;29578;51.946;5.874;2022-08-19T06:45:03;1.30;;;1.13;;
43919;SDS011;29578;51.946;5.874;2022-08-19T06:47:31;1.60;;;1.40;;
43919;SDS011;29578;51.946;5.874;2022-08-19T06:49:58;1.90;;;1.63;;
43919;SDS011;29578;51.946;5.874;2022-08-19T06:52:29;3.53;;;2.20;;
43919;SDS011;29578;51.946;5.874;2022-08-19T06:54:55;4.88;;;2.47;;
43919;SDS011;29578;51.946;5.874;2022-08-19T06:57:21;4.90;;;2.80;;
43919;SDS011;29578;51.946;5.874;2022-08-19T06:59:48;5.95;;;3.00;;
43919;SDS011;29578;51.946;5.874;2022-08-19T07:02:13;4.90;;;2.92;;
43919;SDS011;29578;51.946;5.874;2022-08-19T07:04:39;4.90;;;2.60;;
43919;SDS011;29578;51.946;5.874;2022-08-19T07:07:07;6.95;;;3.67;;
43919;SDS011;29578;51.946;5.874;2022-08-19T07:09:36;9.07;;;4.27;;
43919;SDS011;29578;51.946;5.874;2022-08-19T07:12:04;10.05;;;5.00;;
43919;SDS011;29578;51.946;5.874;2022-08-19T07:14:31;8.90;;;4.72;;
43919;SDS011;29578;51.946;5.874;2022-08-19T07:17:02;8.43;;;4.25;;
43919;SDS011;29578;51.946;5.874;2022-08-19T07:19:29;6.00;;;3.65;;
43919;SDS011;29578;51.946;5.874;2022-08-19T07:21:56;6.75;;;3.83;;
43919;SDS011;29578;51.946;5.874;2022-08-19T07:24:24;7.28;;;4.07;;
43919;SDS011;29578;51.946;5.874;2022-08-19T07:26:52;7.90;;;4.13;;
43919;SDS011;29578;51.946;5.874;2022-08-19T07:29:20;6.32;;;3.65;;
43919;SDS011;29578;51.946;5.874;2022-08-19T07:31:49;8.40;;;4.30;;
43919;SDS011;29578;51.946;5.874;2022-08-19T07:34:17;6.65;;;3.30;;
43919;SDS011;29578;51.946;5.874;2022-08-19T07:36:43;7.10;;;3.35;;
43919;SDS011;29578;51.946;5.874;2022-08-19T07:39:11;6.97;;;3.60;;
43919;SDS011;29578;51.946;5.874;2022-08-19T07:41:40;6.00;;;3.38;;
43919;SDS011;29578;51.946;5.874;2022-08-19T07:44:07;6.70;;;3.53;;
43919;SDS011;29578;51.946;5.874;2022-08-19T07:46:34;7.70;;;4.55;;
43919;SDS011;29578;51.946;5.874;2022-08-19T07:49:03;7.50;;;4.55;;
43919;SDS011;29578;51.946;5.874;2022-08-19T07:51:30;7.10;;;4.28;;
43919;SDS011;29578;51.946;5.874;2022-08-19T07:53:55;6.88;;;4.45;;
43919;SDS011;29578;51.946;5.874;2022-08-19T07:56:22;5.97;;;3.75;;
43919;SDS011;29578;51.946;5.874;2022-08-19T07:58:50;8.13;;;5.13;;
43919;SDS011;29578;51.946;5.874;2022-08-19T08:01:18;6.88;;;4.72;;
43919;SDS011;29578;51.946;5.874;2022-08-19T08:03:47;6.10;;;4.20;;
43919;SDS011;29578;51.946;5.874;2022-08-19T08:06:25;7.60;;;4.40;;
43919;SDS011;29578;51.946;5.874;2022-08-19T08:09:08;6.18;;;4.10;;
43919;SDS011;29578;51.946;5.874;2022-08-19T08:11:38;6.18;;;4.32;;
43919;SDS011;29578;51.946;5.874;2022-08-19T08:14:05;5.72;;;4.18;;
43919;SDS011;29578;51.946;5.874;2022-08-19T08:16:36;6.45;;;4.40;;
43919;SDS011;29578;51.946;5.874;2022-08-19T08:19:04;6.65;;;4.53;;
43919;SDS011;29578;51.946;5.874;2022-08-19T08:21:31;6.28;;;4.25;;
43919;SDS011;29578;51.946;5.874;2022-08-19T08:23:57;6.82;;;4.57;;
43919;SDS011;29578;51.946;5.874;2022-08-19T08:26:23;9.07;;;5.50;;
43919;SDS011;29578;51.946;5.874;2022-08-19T08:28:50;7.63;;;4.55;;
43919;SDS011;29578;51.946;5.874;2022-08-19T08:31:16;6.25;;;4.10;;
43919;SDS011;29578;51.946;5.874;2022-08-19T08:33:44;6.25;;;4.28;;
43919;SDS011;29578;51.946;5.874;2022-08-19T08:36:10;6.80;;;4.63;;
43919;SDS011;29578;51.946;5.874;2022-08-19T08:38:36;7.18;;;4.32;;
43919;SDS011;29578;51.946;5.874;2022-08-19T08:41:07;5.45;;;3.58;;
43919;SDS011;29578;51.946;5.874;2022-08-19T08:43:45;6.53;;;4.65;;
43919;SDS011;29578;51.946;5.874;2022-08-19T08:46:15;7.47;;;4.80;;
43919;SDS011;29578;51.946;5.874;2022-08-19T08:48:56;5.93;;;4.35;;
43919;SDS011;29578;51.946;5.874;2022-08-19T08:51:36;6.80;;;4.43;;
43919;SDS011;29578;51.946;5.874;2022-08-19T08:54:08;5.95;;;4.35;;
43919;SDS011;29578;51.946;5.874;2022-08-19T08:56:38;6.30;;;4.05;;
43919;SDS011;29578;51.946;5.874;2022-08-19T08:59:07;5.88;;;3.53;;
43919;SDS011;29578;51.946;5.874;2022-08-19T09:01:42;6.00;;;3.90;;
43919;SDS011;29578;51.946;5.874;2022-08-19T09:04:08;6.30;;;4.28;;
43919;SDS011;29578;51.946;5.874;2022-08-19T09:09:41;5.50;;;3.80;;
43919;SDS011;29578;51.946;5.874;2022-08-19T09:12:12;4.57;;;3.10;;
43919;SDS011;29578;51.946;5.874;2022-08-19T09:14:49;5.13;;;3.55;;
43919;SDS011;29578;51.946;5.874;2022-08-19T09:17:20;4.00;;;2.90;;
43919;SDS011;29578;51.946;5.874;2022-08-19T09:19:57;4.00;;;3.00;;
43919;SDS011;29578;51.946;5.874;2022-08-19T09:22:42;5.90;;;4.00;;
43919;SDS011;29578;51.946;5.874;2022-08-19T09:25:10;4.55;;;3.17;;
43919;SDS011;29578;51.946;5.874;2022-08-19T09:27:39;5.78;;;3.78;;
43919;SDS011;29578;51.946;5.874;2022-08-19T09:30:06;6.00;;;3.97;;
43919;SDS011;29578;51.946;5.874;2022-08-19T09:32:33;5.53;;;3.60;;
43919;SDS011;29578;51.946;5.874;2022-08-19T09:34:59;5.50;;;3.67;;
43919;SDS011;29578;51.946;5.874;2022-08-19T09:37:26;6.25;;;4.22;;
43919;SDS011;29578;51.946;5.874;2022-08-19T09:39:52;6.53;;;4.05;;
43919;SDS011;29578;51.946;5.874;2022-08-19T09:42:18;6.40;;;4.13;;
43919;SDS011;29578;51.946;5.874;2022-08-19T09:44:45;7.47;;;4.93;;
43919;SDS011;29578;51.946;5.874;2022-08-19T09:47:11;6.15;;;4.22;;
43919;SDS011;29578;51.946;5.874;2022-08-19T09:49:38;5.93;;;4.20;;
43919;SDS011;29578;51.946;5.874;2022-08-19T09:52:07;6.00;;;4.30;;
43919;SDS011;29578;51.946;5.874;2022-08-19T09:54:34;4.93;;;3.47;;
43919;SDS011;29578;51.946;5.874;2022-08-19T09:57:00;5.88;;;3.80;;
43919;SDS011;29578;51.946;5.874;2022-08-19T09:59:26;6.50;;;4.30;;
43919;SDS011;29578;51.946;5.874;2022-08-19T10:01:52;5.38;;;3.50;;
43919;SDS011;29578;51.946;5.874;2022-08-19T10:04:19;5.60;;;3.92;;
43919;SDS011;29578;51.946;5.874;2022-08-19T10:06:46;6.55;;;4.20;;
43919;SDS011;29578;51.946;5.874;2022-08-19T10:09:14;5.35;;;3.40;;
43919;SDS011;29578;51.946;5.874;2022-08-19T10:11:42;4.00;;;2.60;;
43919;SDS011;29578;51.946;5.874;2022-08-19T10:14:13;6.05;;;3.22;;
43919;SDS011;29578;51.946;5.874;2022-08-19T10:16:40;4.70;;;3.38;;
43919;SDS011;29578;51.946;5.874;2022-08-19T10:19:07;6.25;;;3.60;;
43919;SDS011;29578;51.946;5.874;2022-08-19T10:21:34;5.35;;;3.08;;
43919;SDS011;29578;51.946;5.874;2022-08-19T10:24:02;5.32;;;3.40;;
43919;SDS011;29578;51.946;5.874;2022-08-19T10:26:31;5.00;;;3.40;;
43919;SDS011;29578;51.946;5.874;2022-08-19T10:29:02;5.22;;;3.70;;
43919;SDS011;29578;51.946;5.874;2022-08-19T10:31:30;4.47;;;3.17;;
43919;SDS011;29578;51.946;5.874;2022-08-19T10:33:57;5.20;;;3.38;;
43919;SDS011;29578;51.946;5.874;2022-08-19T10:36:24;4.38;;;2.83;;
43919;SDS011;29578;51.946;5.874;2022-08-19T10:38:53;4.60;;;2.78;;
43919;SDS011;29578;51.946;5.874;2022-08-19T10:41:22;4.53;;;3.10;;
43919;SDS011;29578;51.946;5.874;2022-08-19T10:43:51;4.78;;;3.03;;
43919;SDS011;29578;51.946;5.874;2022-08-19T10:46:20;3.80;;;2.72;;
43919;SDS011;29578;51.946;5.874;2022-08-19T10:48:47;4.70;;;3.08;;
43919;SDS011;29578;51.946;5.874;2022-08-19T10:51:14;5.47;;;3.33;;
43919;SDS011;29578;51.946;5.874;2022-08-19T10:53:51;4.47;;;2.95;;
43919;SDS011;29578;51.946;5.874;2022-08-19T10:56:17;3.22;;;2.30;;
43919;SDS011;29578;51.946;5.874;2022-08-19T10:59:02;3.28;;;2.38;;
43919;SDS011;29578;51.946;5.874;2022-08-19T11:01:29;3.30;;;2.40;;
43919;SDS011;29578;51.946;5.874;2022-08-19T11:03:58;3.97;;;2.80;;
43919;SDS011;29578;51.946;5.874;2022-08-19T11:06:26;4.25;;;2.72;;
43919;SDS011;29578;51.946;5.874;2022-08-19T11:08:54;3.92;;;2.42;;
43919;SDS011;29578;51.946;5.874;2022-08-19T11:11:20;3.17;;;2.30;;
43919;SDS011;29578;51.946;5.874;2022-08-19T11:13:46;2.92;;;2.05;;
43919;SDS011;29578;51.946;5.874;2022-08-19T11:16:17;2.72;;;2.00;;
43919;SDS011;29578;51.946;5.874;2022-08-19T11:18:45;3.85;;;2.50;;
43919;SDS011;29578;51.946;5.874;2022-08-19T11:21:15;4.80;;;3.13;;
43919;SDS011;29578;51.946;5.874;2022-08-19T11:23:44;3.83;;;2.58;;
43919;SDS011;29578;51.946;5.874;2022-08-19T11:26:12;4.45;;;2.88;;
43919;SDS011;29578;51.946;5.874;2022-08-19T11:28:39;5.18;;;3.33;;
43919;SDS011;29578;51.946;5.874;2022-08-19T11:31:14;3.63;;;2.55;;
43919;SDS011;29578;51.946;5.874;2022-08-19T11:33:42;3.92;;;2.65;;
43919;SDS011;29578;51.946;5.874;2022-08-19T11:36:08;3.80;;;2.65;;
43919;SDS011;29578;51.946;5.874;2022-08-19T11:38:35;3.53;;;2.47;;
43919;SDS011;29578;51.946;5.874;2022-08-19T11:41:03;4.28;;;2.60;;
43919;SDS011;29578;51.946;5.874;2022-08-19T11:43:32;5.35;;;2.95;;
43919;SDS011;29578;51.946;5.874;2022-08-19T11:45:59;3.78;;;2.60;;
43919;SDS011;29578;51.946;5.874;2022-08-19T11:48:28;4.13;;;3.13;;
43919;SDS011;29578;51.946;5.874;2022-08-19T11:50:54;3.35;;;2.40;;
43919;SDS011;29578;51.946;5.874;2022-08-19T11:53:22;4.25;;;2.60;;
43919;SDS011;29578;51.946;5.874;2022-08-19T11:55:48;3.58;;;2.60;;
43919;SDS011;29578;51.946;5.874;2022-08-19T11:58:15;3.65;;;2.40;;
43919;SDS011;29578;51.946;5.874;2022-08-19T12:00:42;3.30;;;2.50;;
43919;SDS011;29578;51.946;5.874;2022-08-19T12:03:10;3.50;;;2.70;;
43919;SDS011;29578;51.946;5.874;2022-08-19T12:05:37;4.85;;;3.15;;
43919;SDS011;29578;51.946;5.874;2022-08-19T12:08:04;4.25;;;3.10;;
43919;SDS011;29578;51.946;5.874;2022-08-19T12:10:31;3.70;;;2.90;;
43919;SDS011;29578;51.946;5.874;2022-08-19T12:12:57;3.47;;;2.83;;
43919;SDS011;29578;51.946;5.874;2022-08-19T12:15:23;4.50;;;3.22;;
43919;SDS011;29578;51.946;5.874;2022-08-19T12:17:49;4.55;;;3.40;;
43919;SDS011;29578;51.946;5.874;2022-08-19T12:20:15;5.72;;;3.20;;
43919;SDS011;29578;51.946;5.874;2022-08-19T12:22:42;5.15;;;3.13;;
43919;SDS011;29578;51.946;5.874;2022-08-19T12:25:09;4.75;;;2.88;;
43919;SDS011;29578;51.946;5.874;2022-08-19T12:27:35;3.97;;;2.72;;
43919;SDS011;29578;51.946;5.874;2022-08-19T12:30:02;3.97;;;2.80;;
43919;SDS011;29578;51.946;5.874;2022-08-19T12:32:29;3.28;;;2.45;;
43919;SDS011;29578;51.946;5.874;2022-08-19T12:34:55;3.20;;;2.67;;
43919;SDS011;29578;51.946;5.874;2022-08-19T12:37:21;7.07;;;3.55;;
43919;SDS011;29578;51.946;5.874;2022-08-19T12:39:46;4.90;;;3.47;;
43919;SDS011;29578;51.946;5.874;2022-08-19T12:42:12;5.70;;;4.20;;
43919;SDS011;29578;51.946;5.874;2022-08-19T12:44:40;5.65;;;4.05;;
43919;SDS011;29578;51.946;5.874;2022-08-19T12:47:07;6.50;;;4.43;;
43919;SDS011;29578;51.946;5.874;2022-08-19T12:49:34;6.18;;;4.18;;
43919;SDS011;29578;51.946;5.874;2022-08-19T12:52:02;5.10;;;3.85;;
43919;SDS011;29578;51.946;5.874;2022-08-19T12:54:29;5.25;;;4.05;;
43919;SDS011;29578;51.946;5.874;2022-08-19T12:56:56;5.07;;;3.78;;
43919;SDS011;29578;51.946;5.874;2022-08-19T12:59:24;4.38;;;3.25;;
43919;SDS011;29578;51.946;5.874;2022-08-19T13:01:51;4.18;;;3.05;;
43919;SDS011;29578;51.946;5.874;2022-08-19T13:04:17;5.53;;;3.85;;
43919;SDS011;29578;51.946;5.874;2022-08-19T13:06:43;5.00;;;3.55;;
43919;SDS011;29578;51.946;5.874;2022-08-19T13:09:09;4.78;;;3.63;;
43919;SDS011;29578;51.946;5.874;2022-08-19T13:11:36;4.07;;;3.15;;
43919;SDS011;29578;51.946;5.874;2022-08-19T13:14:03;4.22;;;3.15;;
43919;SDS011;29578;51.946;5.874;2022-08-19T13:16:29;3.88;;;2.80;;
43919;SDS011;29578;51.946;5.874;2022-08-19T13:18:55;5.20;;;3.75;;
43919;SDS011;29578;51.946;5.874;2022-08-19T13:21:23;4.50;;;3.20;;
43919;SDS011;29578;51.946;5.874;2022-08-19T13:23:52;4.28;;;3.20;;
43919;SDS011;29578;51.946;5.874;2022-08-19T13:26:19;4.10;;;3.20;;
43919;SDS011;29578;51.946;5.874;2022-08-19T13:28:45;4.30;;;3.08;;
43919;SDS011;29578;51.946;5.874;2022-08-19T13:31:24;3.80;;;2.70;;
43919;SDS011;29578;51.946;5.874;2022-08-19T13:34:04;4.63;;;2.80;;
43919;SDS011;29578;51.946;5.874;2022-08-19T13:36:31;4.43;;;2.95;;
43919;SDS011;29578;51.946;5.874;2022-08-19T13:38:57;4.00;;;2.78;;
43919;SDS011;29578;51.946;5.874;2022-08-19T13:41:24;3.45;;;2.63;;
43919;SDS011;29578;51.946;5.874;2022-08-19T13:43:50;3.05;;;2.53;;
43919;SDS011;29578;51.946;5.874;2022-08-19T13:46:16;4.82;;;3.08;;
43919;SDS011;29578;51.946;5.874;2022-08-19T13:48:42;3.47;;;2.60;;
43919;SDS011;29578;51.946;5.874;2022-08-19T13:51:08;5.07;;;3.33;;
43919;SDS011;29578;51.946;5.874;2022-08-19T13:53:36;4.97;;;3.40;;
43919;SDS011;29578;51.946;5.874;2022-08-19T13:56:06;5.35;;;3.63;;
43919;SDS011;29578;51.946;5.874;2022-08-19T13:58:34;2.92;;;2.40;;
43919;SDS011;29578;51.946;5.874;2022-08-19T14:01:01;5.38;;;3.38;;
43919;SDS011;29578;51.946;5.874;2022-08-19T14:03:27;4.88;;;3.45;;
43919;SDS011;29578;51.946;5.874;2022-08-19T14:05:53;4.50;;;3.30;;
43919;SDS011;29578;51.946;5.874;2022-08-19T14:08:19;3.85;;;3.10;;
43919;SDS011;29578;51.946;5.874;2022-08-19T14:10:45;4.88;;;3.40;;
43919;SDS011;29578;51.946;5.874;2022-08-19T14:13:13;5.40;;;3.47;;
43919;SDS011;29578;51.946;5.874;2022-08-19T14:15:42;3.58;;;2.70;;
43919;SDS011;29578;51.946;5.874;2022-08-19T14:18:08;4.90;;;3.00;;
43919;SDS011;29578;51.946;5.874;2022-08-19T14:20:34;4.50;;;3.08;;
43919;SDS011;29578;51.946;5.874;2022-08-19T14:23:00;4.53;;;3.03;;
43919;SDS011;29578;51.946;5.874;2022-08-19T14:25:27;3.63;;;2.63;;
43919;SDS011;29578;51.946;5.874;2022-08-19T14:27:54;3.40;;;2.50;;
43919;SDS011;29578;51.946;5.874;2022-08-19T14:30:23;3.80;;;2.72;;
43919;SDS011;29578;51.946;5.874;2022-08-19T14:32:53;4.40;;;3.17;;
43919;SDS011;29578;51.946;5.874;2022-08-19T14:35:19;3.55;;;2.72;;
43919;SDS011;29578;51.946;5.874;2022-08-19T14:37:47;5.22;;;3.78;;
43919;SDS011;29578;51.946;5.874;2022-08-19T14:40:15;4.18;;;3.17;;
43919;SDS011;29578;51.946;5.874;2022-08-19T14:42:43;4.15;;;3.05;;
43919;SDS011;29578;51.946;5.874;2022-08-19T14:45:10;4.70;;;3.03;;
43919;SDS011;29578;51.946;5.874;2022-08-19T14:47:37;4.47;;;3.10;;
43919;SDS011;29578;51.946;5.874;2022-08-19T14:50:04;3.40;;;2.40;;
43919;SDS011;29578;51.946;5.874;2022-08-19T14:52:32;3.97;;;2.80;;
43919;SDS011;29578;51.946;5.874;2022-08-19T14:54:57;4.07;;;2.63;;